Time;durP1;ratioP1;P1;durP2;ratioP2;P2;SDS_P1;SDS_P2;PMS_P1;PMS_P2;Temp;Humidity;BMP_temperature;BMP_pressure;BME280_temperature;BME280_humidity;BME280_pressure;Samples;Min_cycle;Max_cycle;Signal;HPM_P1;HPM_P2
2022/06/01 00:00:57;;;;;;;2.72;2.35;;;21.20;53.20;;;;;;5055136;28;20028;-59
2022/06/01 00:03:24;;;;;;;2.60;2.40;;;21.20;53.90;;;;;;5052139;28;20037;-56
2022/06/01 00:05:53;;;;;;;2.25;2.15;;;21.20;53.20;;;;;;5051766;28;20067;-63
2022/06/01 00:08:23;;;;;;;2.22;2.00;;;21.20;53.10;;;;;;5055018;28;20048;-57
2022/06/01 00:10:49;;;;;;;2.50;2.30;;;21.20;53.00;;;;;;5037142;28;20084;-58
2022/06/01 00:13:15;;;;;;;2.30;2.10;;;21.20;53.00;;;;;;5053090;28;20072;-58
2022/06/01 00:15:40;;;;;;;3.13;2.10;;;21.20;53.00;;;;;;5054558;28;20174;-57
2022/06/01 00:18:06;;;;;;;2.15;1.95;;;21.20;53.00;;;;;;5052649;28;20047;-60
2022/06/01 00:20:32;;;;;;;1.98;1.75;;;21.20;52.90;;;;;;5056808;28;20497;-57
2022/06/01 00:22:58;;;;;;;3.50;2.70;;;21.10;52.80;;;;;;5055738;28;20115;-57
2022/06/01 00:25:24;;;;;;;2.40;2.20;;;21.20;52.90;;;;;;5055265;28;20784;-57
2022/06/01 00:27:50;;;;;;;2.15;1.95;;;21.10;52.80;;;;;;5053238;28;20400;-58
2022/06/01 00:30:18;;;;;;;2.47;1.85;;;21.20;52.80;;;;;;5053285;28;20041;-58
2022/06/01 00:32:44;;;;;;;2.08;1.90;;;21.20;52.80;;;;;;5053409;28;20094;-57
2022/06/01 00:35:11;;;;;;;2.35;2.15;;;21.20;52.70;;;;;;5037009;28;20122;-59
2022/06/01 00:37:37;;;;;;;2.40;2.10;;;21.10;52.70;;;;;;5052596;28;20117;-58
2022/06/01 00:40:04;;;;;;;2.28;2.08;;;21.10;52.70;;;;;;5053898;28;20044;-61
2022/06/01 00:42:32;;;;;;;2.25;2.05;;;21.10;52.70;;;;;;5054927;28;20693;-57
2022/06/01 00:44:58;;;;;;;2.30;2.00;;;21.10;52.60;;;;;;5034266;28;20041;-57
2022/06/01 00:47:26;;;;;;;2.45;2.20;;;21.10;52.60;;;;;;5055039;28;20077;-57
2022/06/01 00:50:05;;;;;;;3.25;2.53;;;21.10;52.60;;;;;;5054735;28;20085;-58
2022/06/01 00:52:37;;;;;;;2.20;2.08;;;21.10;52.50;;;;;;5054680;28;21032;-58
2022/06/01 00:55:11;;;;;;;2.42;2.10;;;21.10;52.60;;;;;;5053203;28;20373;-58
2022/06/01 00:57:37;;;;;;;2.20;2.00;;;21.10;52.60;;;;;;5051744;28;20901;-60
2022/06/01 01:00:11;;;;;;;2.25;2.05;;;21.10;52.60;;;;;;5053021;28;20127;-56
2022/06/01 01:02:38;;;;;;;2.00;1.90;;;21.10;52.50;;;;;;5052000;28;20462;-59
2022/06/01 01:05:06;;;;;;;2.22;2.03;;;21.10;52.50;;;;;;5052459;28;20429;-58
2022/06/01 01:07:32;;;;;;;2.17;1.98;;;21.10;52.50;;;;;;5055546;28;20040;-56
2022/06/01 01:09:58;;;;;;;2.42;2.22;;;21.10;52.50;;;;;;5053987;28;20044;-57
2022/06/01 01:12:23;;;;;;;2.58;2.38;;;21.10;52.40;;;;;;5053128;28;20438;-59
2022/06/01 01:14:49;;;;;;;2.30;2.17;;;21.10;52.40;;;;;;5056766;28;20115;-57
2022/06/01 01:17:15;;;;;;;2.40;2.20;;;21.10;52.40;;;;;;5056476;28;20036;-56
2022/06/01 01:19:49;;;;;;;2.45;2.00;;;21.10;52.30;;;;;;5056856;28;20032;-59
2022/06/01 01:22:24;;;;;;;2.17;1.95;;;21.10;52.30;;;;;;5057453;28;20681;-56
2022/06/01 01:25:13;;;;;;;2.65;2.25;;;21.10;52.20;;;;;;5057072;28;20554;-59
2022/06/01 01:27:39;;;;;;;2.42;2.22;;;21.10;52.10;;;;;;5059630;28;20039;-57
2022/06/01 01:30:25;;;;;;;2.40;2.20;;;21.10;52.20;;;;;;5056276;28;20045;-59
2022/06/01 01:32:51;;;;;;;2.40;2.20;;;21.10;52.10;;;;;;5057106;28;20091;-58
2022/06/01 01:35:17;;;;;;;2.17;2.00;;;21.10;52.20;;;;;;5055566;28;20052;-57
2022/06/01 01:37:43;;;;;;;2.40;2.20;;;21.10;52.20;;;;;;5057581;28;20543;-58
2022/06/01 01:40:10;;;;;;;2.25;2.15;;;21.10;52.10;;;;;;5056702;28;20393;-57
2022/06/01 01:42:36;;;;;;;1.83;1.73;;;21.10;52.10;;;;;;5055816;28;20291;-57
2022/06/01 01:45:07;;;;;;;2.28;2.08;;;21.10;52.10;;;;;;5059001;28;20032;-58
2022/06/01 01:47:37;;;;;;;2.22;2.05;;;21.10;52.10;;;;;;5058811;28;20243;-57
2022/06/01 01:50:08;;;;;;;2.30;2.10;;;21.10;52.00;;;;;;5056403;28;20389;-57
2022/06/01 01:52:33;;;;;;;2.50;2.30;;;21.10;52.00;;;;;;5046051;28;20242;-59
2022/06/01 01:55:16;;;;;;;2.38;2.17;;;21.10;52.00;;;;;;5056261;28;20047;-57
2022/06/01 01:57:57;;;;;;;2.15;2.05;;;21.10;52.00;;;;;;5057287;28;20587;-59
2022/06/01 02:00:25;;;;;;;2.03;1.90;;;21.10;52.00;;;;;;5051323;28;20043;-57
2022/06/01 02:03:21;;;;;;;2.75;2.10;;;21.10;52.00;;;;;;5052028;28;20048;-60
2022/06/01 02:06:08;;;;;;;2.17;2.08;;;21.10;51.90;;;;;;5053837;28;20116;-59
2022/06/01 02:08:46;;;;;;;2.38;2.00;;;21.10;51.90;;;;;;5054813;28;20055;-57
2022/06/01 02:14:09;;;;;;;1.80;1.70;;;21.10;51.90;;;;;;5056368;28;20090;-57
2022/06/01 02:16:43;;;;;;;2.70;2.30;;;21.10;51.90;;;;;;5060288;28;20043;-58
2022/06/01 02:19:16;;;;;;;2.08;1.88;;;21.00;51.80;;;;;;5057249;28;20408;-58
2022/06/01 02:21:41;;;;;;;1.92;1.80;;;21.10;51.90;;;;;;5057526;28;20048;-61
2022/06/01 02:24:08;;;;;;;2.10;1.98;;;21.00;51.80;;;;;;5055049;28;20119;-61
2022/06/01 02:26:34;;;;;;;2.17;1.83;;;21.00;51.90;;;;;;5056449;28;20460;-59
2022/06/01 02:29:08;;;;;;;2.17;2.08;;;21.00;51.80;;;;;;5058789;28;20037;-58
2022/06/01 02:31:37;;;;;;;4.03;2.20;;;21.00;51.80;;;;;;5055833;28;20047;-59
2022/06/01 02:34:07;;;;;;;2.05;1.95;;;21.00;51.70;;;;;;5033419;28;20056;-59
2022/06/01 02:36:33;;;;;;;1.98;1.88;;;21.00;51.80;;;;;;5032064;28;20045;-58
2022/06/01 02:39:02;;;;;;;1.80;1.70;;;21.00;51.70;;;;;;5035670;28;20033;-58
2022/06/01 02:44:11;;;;;;;2.05;1.95;;;21.00;51.70;;;;;;5035982;28;20091;-59
2022/06/01 02:46:37;;;;;;;1.98;1.88;;;21.00;51.60;;;;;;5037085;28;20037;-57
2022/06/01 02:49:04;;;;;;;1.80;1.70;;;21.00;51.70;;;;;;5036215;28;20606;-58
2022/06/01 02:51:30;;;;;;;1.85;1.50;;;21.00;51.70;;;;;;5036052;28;20569;-58
2022/06/01 02:53:55;;;;;;;1.75;1.65;;;21.00;51.60;;;;;;5037104;28;20045;-57
2022/06/01 02:56:21;;;;;;;1.92;1.80;;;21.00;51.60;;;;;;5036609;28;20180;-59
2022/06/01 02:58:47;;;;;;;1.83;1.73;;;21.00;51.70;;;;;;5038140;28;20742;-56
2022/06/01 03:01:12;;;;;;;2.00;1.80;;;21.00;51.70;;;;;;5035065;28;20402;-58
2022/06/01 03:03:39;;;;;;;1.80;1.70;;;21.00;51.70;;;;;;5019228;28;20122;-57
2022/06/01 03:06:04;;;;;;;1.70;1.60;;;21.00;51.70;;;;;;5034118;28;20140;-57
2022/06/01 03:08:32;;;;;;;2.00;1.80;;;21.00;51.70;;;;;;5035478;28;20145;-58
2022/06/01 03:10:58;;;;;;;2.03;1.70;;;21.00;51.70;;;;;;5036401;28;20485;-57
2022/06/01 03:13:24;;;;;;;2.10;1.90;;;21.00;51.70;;;;;;5037965;28;20386;-57
2022/06/01 03:15:51;;;;;;;1.85;1.75;;;21.00;51.70;;;;;;5036972;28;20068;-57
2022/06/01 03:18:17;;;;;;;2.10;1.80;;;21.00;51.70;;;;;;5034919;28;20045;-58
2022/06/01 03:20:42;;;;;;;2.05;1.95;;;21.00;51.70;;;;;;5037395;28;20048;-58
2022/06/01 03:23:09;;;;;;;1.90;1.80;;;21.00;51.70;;;;;;5036093;28;20037;-58
2022/06/01 03:25:37;;;;;;;1.80;1.70;;;21.00;51.70;;;;;;5034860;28;20421;-57
2022/06/01 03:28:03;;;;;;;2.00;1.90;;;21.00;51.70;;;;;;5034855;28;20037;-57
2022/06/01 03:30:29;;;;;;;2.80;1.67;;;21.00;51.70;;;;;;5038120;28;20041;-58
2022/06/01 03:32:56;;;;;;;1.52;1.42;;;21.00;51.80;;;;;;5043296;28;20052;-58
2022/06/01 03:35:24;;;;;;;1.70;1.60;;;21.00;51.80;;;;;;5054717;28;20786;-58
2022/06/01 03:37:50;;;;;;;2.10;2.00;;;21.00;51.70;;;;;;5053501;28;20075;-60
2022/06/01 03:40:18;;;;;;;1.90;1.80;;;21.00;51.70;;;;;;5053247;28;20120;-59
2022/06/01 03:42:44;;;;;;;1.80;1.70;;;21.00;51.70;;;;;;5043320;28;20114;-57
2022/06/01 03:47:55;;;;;;;2.40;1.60;;;20.90;51.70;;;;;;5054963;28;20095;-58
2022/06/01 03:50:26;;;;;;;1.92;1.80;;;21.00;51.70;;;;;;5055116;28;20039;-61
2022/06/01 03:52:52;;;;;;;2.28;1.85;;;20.90;51.60;;;;;;5054923;28;20036;-58
2022/06/01 03:55:18;;;;;;;1.95;1.67;;;21.00;51.70;;;;;;5055500;28;20496;-60
2022/06/01 03:57:43;;;;;;;2.10;2.00;;;21.00;51.70;;;;;;5054519;28;20048;-58
2022/06/01 04:00:13;;;;;;;2.03;1.83;;;20.90;51.70;;;;;;5054003;28;20068;-57
2022/06/01 04:02:40;;;;;;;2.22;2.03;;;20.90;51.70;;;;;;5049181;28;20040;-60
2022/06/01 04:05:06;;;;;;;2.22;2.03;;;20.90;51.60;;;;;;5052878;28;20154;-58
2022/06/01 04:07:32;;;;;;;2.15;1.95;;;20.90;51.60;;;;;;5051224;28;20037;-57
2022/06/01 04:09:58;;;;;;;1.95;1.77;;;20.90;51.60;;;;;;5055066;28;20093;-58
2022/06/01 04:12:23;;;;;;;1.80;1.70;;;20.90;51.60;;;;;;5054014;28;20032;-58
2022/06/01 04:14:49;;;;;;;2.22;1.90;;;20.90;51.50;;;;;;5050473;28;20045;-57
2022/06/01 04:17:15;;;;;;;3.03;1.95;;;20.90;51.60;;;;;;5044544;28;20049;-57
2022/06/01 04:19:41;;;;;;;3.40;1.63;;;20.90;51.50;;;;;;5050163;28;20094;-57
2022/06/01 04:22:08;;;;;;;1.95;1.77;;;20.90;51.60;;;;;;5055655;28;20346;-58
2022/06/01 04:24:34;;;;;;;2.95;2.10;;;20.90;51.60;;;;;;5047663;28;20037;-59
2022/06/01 04:27:00;;;;;;;2.30;2.20;;;20.90;51.50;;;;;;5053503;28;20037;-59
2022/06/01 04:29:26;;;;;;;2.90;2.60;;;20.90;51.50;;;;;;5052944;28;20071;-58
2022/06/01 04:32:06;;;;;;;1.80;1.70;;;20.90;51.60;;;;;;5053920;28;20132;-57
2022/06/01 04:34:32;;;;;;;2.22;1.95;;;20.90;51.60;;;;;;5055023;28;20052;-58
2022/06/01 04:36:57;;;;;;;2.35;2.15;;;20.90;51.60;;;;;;5055611;28;20132;-58
2022/06/01 04:39:23;;;;;;;2.28;2.17;;;20.90;51.60;;;;;;5053740;28;20920;-59
2022/06/01 04:41:50;;;;;;;2.60;2.40;;;20.90;51.60;;;;;;5051591;28;20043;-58
2022/06/01 04:44:16;;;;;;;2.42;2.33;;;20.90;51.60;;;;;;5051819;28;20040;-58
2022/06/01 04:46:41;;;;;;;3.42;3.20;;;20.80;51.60;;;;;;5051359;28;20424;-61
2022/06/01 04:49:07;;;;;;;2.60;2.40;;;20.90;51.80;;;;;;5049024;28;20037;-60
2022/06/01 04:51:36;;;;;;;2.35;2.22;;;20.90;51.70;;;;;;5049490;28;20037;-57
2022/06/01 04:54:02;;;;;;;2.40;2.20;;;20.90;51.70;;;;;;5049483;28;20055;-57
2022/06/01 04:56:28;;;;;;;2.53;2.33;;;20.90;51.80;;;;;;5053617;28;20068;-59
2022/06/01 04:58:54;;;;;;;4.20;2.47;;;20.90;51.80;;;;;;5051691;28;20752;-58
2022/06/01 05:01:20;;;;;;;2.50;2.30;;;20.90;51.80;;;;;;5051964;28;20128;-58
2022/06/01 05:03:45;;;;;;;3.47;3.03;;;20.90;51.80;;;;;;5052141;28;20071;-60
2022/06/01 05:06:11;;;;;;;2.90;2.70;;;20.90;51.90;;;;;;5055521;28;20519;-57
2022/06/01 05:08:37;;;;;;;2.80;2.60;;;20.90;51.90;;;;;;5054813;28;20707;-58
2022/06/01 05:11:03;;;;;;;3.53;3.00;;;20.90;51.90;;;;;;5051367;28;20650;-58
2022/06/01 05:13:29;;;;;;;3.22;3.00;;;20.90;51.90;;;;;;5055270;28;20482;-62
2022/06/01 05:15:57;;;;;;;3.42;3.13;;;20.90;51.90;;;;;;5043296;28;20532;-60
2022/06/01 05:18:23;;;;;;;6.53;3.10;;;20.90;52.00;;;;;;5043842;28;20037;-61
2022/06/01 05:20:49;;;;;;;2.95;2.65;;;20.90;52.00;;;;;;5023712;28;20125;-59
2022/06/01 05:23:17;;;;;;;3.30;3.10;;;20.80;51.90;;;;;;5048391;28;20135;-59
2022/06/01 05:25:44;;;;;;;4.07;3.10;;;20.90;52.00;;;;;;5052640;28;20116;-62
2022/06/01 05:28:10;;;;;;;4.90;3.30;;;20.80;51.90;;;;;;5052377;28;20036;-60
2022/06/01 05:30:36;;;;;;;3.65;3.13;;;20.80;51.90;;;;;;5053963;28;20035;-58
2022/06/01 05:33:03;;;;;;;4.03;3.10;;;20.80;51.80;;;;;;5053166;28;20473;-60
2022/06/01 05:35:28;;;;;;;3.53;3.22;;;20.80;51.90;;;;;;5054391;28;20041;-60
2022/06/01 05:37:54;;;;;;;4.70;4.30;;;20.80;51.90;;;;;;5055818;28;20048;-60
2022/06/01 05:40:19;;;;;;;3.90;3.60;;;20.80;51.90;;;;;;5053175;28;20102;-59
2022/06/01 05:42:45;;;;;;;8.40;4.20;;;20.80;51.90;;;;;;5055113;28;20036;-58
2022/06/01 05:45:11;;;;;;;5.43;3.30;;;20.80;51.90;;;;;;5050368;28;20036;-60
2022/06/01 05:47:37;;;;;;;4.18;3.72;;;20.80;52.00;;;;;;5051437;28;20032;-60
2022/06/01 05:50:04;;;;;;;5.05;3.80;;;20.80;52.00;;;;;;5039821;28;20045;-59
2022/06/01 05:52:30;;;;;;;5.40;3.65;;;20.80;52.00;;;;;;5050333;28;20523;-60
2022/06/01 05:54:56;;;;;;;4.50;4.03;;;20.80;52.10;;;;;;5053248;28;20048;-59
2022/06/01 05:57:21;;;;;;;5.28;4.78;;;20.80;52.30;;;;;;5052391;28;20078;-62
2022/06/01 05:59:47;;;;;;;4.13;3.80;;;20.80;52.10;;;;;;5042619;28;20087;-60
2022/06/01 06:02:13;;;;;;;4.15;3.42;;;20.80;52.10;;;;;;5053181;28;20041;-60
2022/06/01 06:04:38;;;;;;;3.20;3.00;;;20.80;52.10;;;;;;5057308;28;20460;-59
2022/06/01 06:07:04;;;;;;;3.58;3.28;;;20.80;52.10;;;;;;5058035;28;20825;-59
2022/06/01 06:09:30;;;;;;;3.55;3.20;;;20.80;52.10;;;;;;5053897;28;20041;-60
2022/06/01 06:11:56;;;;;;;3.05;2.85;;;20.80;52.20;;;;;;5049217;28;20037;-58
2022/06/01 06:14:21;;;;;;;3.50;2.97;;;20.80;52.10;;;;;;5056652;28;20028;-60
2022/06/01 06:16:47;;;;;;;3.03;2.83;;;20.80;52.10;;;;;;5056192;28;20124;-58
2022/06/01 06:19:15;;;;;;;3.28;2.80;;;20.80;52.10;;;;;;5054706;28;20048;-60
2022/06/01 06:21:41;;;;;;;2.60;2.40;;;20.80;52.10;;;;;;5055331;28;20033;-59
2022/06/01 06:24:11;;;;;;;2.90;2.65;;;20.90;52.20;;;;;;5054676;28;20048;-59
2022/06/01 06:26:38;;;;;;;4.07;2.60;;;20.90;52.20;;;;;;5056259;28;20040;-60
2022/06/01 06:29:07;;;;;;;2.58;2.13;;;20.90;52.10;;;;;;5038927;28;20037;-61
2022/06/01 06:31:33;;;;;;;2.30;2.17;;;20.90;52.20;;;;;;5058445;28;20079;-58
2022/06/01 06:33:58;;;;;;;2.33;2.08;;;20.90;52.20;;;;;;5055716;28;20159;-60
2022/06/01 06:36:24;;;;;;;2.03;1.83;;;20.90;52.30;;;;;;5054198;28;20503;-58
2022/06/01 06:38:50;;;;;;;2.15;1.95;;;20.90;52.30;;;;;;5054717;28;20041;-60
2022/06/01 06:41:16;;;;;;;4.10;2.10;;;20.90;52.30;;;;;;5051634;28;20411;-60
2022/06/01 06:43:42;;;;;;;2.20;1.92;;;20.90;52.40;;;;;;5053732;28;20094;-59
2022/06/01 06:46:11;;;;;;;2.40;2.13;;;20.90;52.40;;;;;;5052707;28;20047;-59
2022/06/01 06:48:37;;;;;;;5.40;2.58;;;20.90;52.60;;;;;;5052896;28;20206;-58
2022/06/01 06:51:03;;;;;;;2.88;2.00;;;20.90;52.70;;;;;;5053182;28;20067;-61
2022/06/01 06:53:29;;;;;;;2.33;1.98;;;20.90;52.70;;;;;;5053876;28;20032;-59
2022/06/01 06:55:55;;;;;;;2.88;2.03;;;20.90;52.80;;;;;;5055494;28;20047;-59
2022/06/01 06:58:22;;;;;;;2.17;1.98;;;20.90;52.80;;;;;;5054323;28;20171;-59
2022/06/01 07:00:48;;;;;;;3.30;2.00;;;20.90;52.80;;;;;;5051958;28;20117;-60
2022/06/01 07:03:15;;;;;;;2.55;2.20;;;20.90;52.90;;;;;;5054151;28;20480;-61
2022/06/01 07:08:26;;;;;;;3.58;1.85;;;20.90;53.00;;;;;;5055786;28;20122;-60
2022/06/01 07:10:53;;;;;;;2.40;2.20;;;20.90;53.00;;;;;;5055601;28;20040;-59
2022/06/01 07:13:18;;;;;;;1.67;1.58;;;20.90;53.00;;;;;;5055309;28;20051;-60
2022/06/01 07:15:44;;;;;;;2.15;1.80;;;20.90;53.00;;;;;;5056685;28;20461;-60
2022/06/01 07:18:10;;;;;;;3.13;1.83;;;20.90;53.10;;;;;;5056681;28;20052;-60
2022/06/01 07:20:36;;;;;;;1.90;1.75;;;20.90;53.10;;;;;;5052338;28;20464;-58
2022/06/01 07:23:02;;;;;;;3.38;2.15;;;20.90;53.20;;;;;;5052125;28;20087;-59
2022/06/01 07:25:28;;;;;;;2.65;2.05;;;20.90;53.10;;;;;;5055768;28;20036;-59
2022/06/01 07:27:55;;;;;;;4.57;2.20;;;20.90;53.20;;;;;;5055604;28;20048;-59
2022/06/01 07:30:21;;;;;;;2.15;1.73;;;20.90;53.20;;;;;;5056877;28;20511;-62
2022/06/01 07:32:47;;;;;;;2.00;1.90;;;20.90;53.30;;;;;;5055586;28;20048;-58
2022/06/01 07:35:14;;;;;;;5.70;2.33;;;20.90;53.30;;;;;;5056110;28;20488;-62
2022/06/01 07:43:13;;;;;;;8.20;2.30;;;20.90;53.70;;;;;;5008313;28;20049;-59
2022/06/01 07:45:43;;;;;;;4.72;2.38;;;20.90;53.90;;;;;;5051499;28;20542;-63
2022/06/01 07:48:09;;;;;;;5.22;1.98;;;20.90;54.10;;;;;;5047618;28;20123;-59
2022/06/01 07:50:35;;;;;;;4.55;1.80;;;20.90;54.20;;;;;;5044955;28;20059;-60
2022/06/01 07:53:03;;;;;;;2.47;1.90;;;20.90;54.20;;;;;;5048575;28;20072;-60
2022/06/01 07:55:29;;;;;;;5.32;2.13;;;20.90;54.30;;;;;;5043879;28;21139;-59
2022/06/01 07:57:55;;;;;;;3.55;2.00;;;20.90;54.40;;;;;;5054805;28;20051;-59
2022/06/01 08:00:21;;;;;;;3.88;1.85;;;20.90;54.40;;;;;;5051916;28;20064;-59
2022/06/01 08:02:47;;;;;;;3.42;2.17;;;20.90;54.60;;;;;;5053892;28;20045;-58
2022/06/01 08:05:15;;;;;;;3.95;2.08;;;20.90;54.60;;;;;;5052583;28;20036;-60
2022/06/01 08:07:42;;;;;;;4.25;1.73;;;20.90;54.60;;;;;;5054223;28;20044;-60
2022/06/01 08:10:09;;;;;;;2.63;1.65;;;20.90;54.60;;;;;;5052811;28;20114;-60
2022/06/01 08:15:20;;;;;;;2.58;1.65;;;20.90;54.40;;;;;;5051038;28;20369;-61
2022/06/01 08:17:47;;;;;;;4.80;2.08;;;20.90;54.40;;;;;;5054429;28;20064;-59
2022/06/01 08:20:14;;;;;;;2.45;1.60;;;20.90;54.40;;;;;;5042719;28;20389;-59
2022/06/01 08:22:41;;;;;;;2.67;1.70;;;20.90;54.40;;;;;;5032284;28;20046;-59
2022/06/01 08:25:09;;;;;;;2.65;1.85;;;20.90;54.50;;;;;;5053248;28;20043;-61
2022/06/01 08:27:34;;;;;;;2.50;1.52;;;20.90;54.60;;;;;;5040808;28;20020;-58
2022/06/01 08:30:00;;;;;;;4.53;1.50;;;20.90;54.50;;;;;;5053723;28;20514;-58
2022/06/01 08:32:26;;;;;;;12.30;1.45;;;20.90;54.40;;;;;;5050231;28;20048;-59
2022/06/01 08:34:51;;;;;;;2.22;1.42;;;20.90;54.50;;;;;;5051720;28;20171;-60
2022/06/01 08:37:17;;;;;;;4.13;1.50;;;20.90;54.50;;;;;;5053400;28;20040;-59
2022/06/01 08:39:43;;;;;;;2.20;1.40;;;20.90;54.40;;;;;;5053555;28;20042;-59
2022/06/01 08:42:14;;;;;;;5.63;1.17;;;20.90;54.40;;;;;;5055634;28;20040;-61
2022/06/01 08:44:43;;;;;;;2.80;1.30;;;20.90;54.40;;;;;;5054196;28;20089;-60
2022/06/01 08:47:26;;;;;;;2.83;1.10;;;20.90;54.40;;;;;;5053631;28;20037;-60
2022/06/01 08:49:55;;;;;;;3.45;1.20;;;20.90;54.40;;;;;;5036235;28;20040;-61
2022/06/01 08:52:23;;;;;;;1.77;1.10;;;20.90;54.50;;;;;;5052248;28;20449;-61
2022/06/01 08:54:49;;;;;;;2.80;1.10;;;20.90;54.50;;;;;;5035898;28;20067;-60
2022/06/01 08:57:23;;;;;;;0.93;0.80;;;21.00;54.50;;;;;;5053665;28;20036;-58
2022/06/01 08:59:58;;;;;;;2.58;1.10;;;21.00;54.40;;;;;;5054649;28;20032;-59
2022/06/01 09:02:57;;;;;;;1.50;1.27;;;21.00;54.50;;;;;;5055044;28;20045;-60
2022/06/01 09:05:38;;;;;;;6.97;1.33;;;21.00;54.50;;;;;;5053364;28;20032;-58
2022/06/01 09:08:43;;;;;;;1.10;0.95;;;20.90;54.50;;;;;;5051105;28;20063;-59
2022/06/01 09:11:12;;;;;;;2.15;1.42;;;21.00;54.50;;;;;;5055074;28;20044;-58
2022/06/01 09:13:59;;;;;;;2.28;1.20;;;21.00;54.60;;;;;;5052975;28;20488;-58
2022/06/01 09:16:37;;;;;;;3.25;1.10;;;21.00;54.60;;;;;;5053170;28;20033;-58
2022/06/01 09:19:03;;;;;;;1.13;0.95;;;21.00;54.50;;;;;;5054907;28;20036;-60
2022/06/01 09:24:25;;;;;;;1.52;0.80;;;21.00;54.40;;;;;;5054560;28;20116;-60
2022/06/01 09:26:53;;;;;;;2.92;0.93;;;21.00;54.40;;;;;;5052209;28;20044;-57
2022/06/01 09:29:23;;;;;;;2.45;1.10;;;20.90;54.30;;;;;;5053834;28;20040;-59
2022/06/01 09:31:54;;;;;;;4.22;1.17;;;21.00;54.20;;;;;;5053141;28;20672;-59
2022/06/01 09:34:48;;;;;;;1.27;0.80;;;21.00;54.20;;;;;;5051792;28;20106;-59
2022/06/01 09:37:24;;;;;;;1.90;0.93;;;20.90;54.10;;;;;;5053687;28;20053;-58
2022/06/01 09:40:05;;;;;;;1.88;0.85;;;21.00;54.10;;;;;;5057981;28;20698;-60
2022/06/01 09:42:41;;;;;;;2.15;1.00;;;21.00;54.00;;;;;;5056421;28;20041;-58
2022/06/01 09:45:25;;;;;;;1.30;0.88;;;21.00;54.00;;;;;;5040546;28;20048;-62
2022/06/01 09:47:52;;;;;;;1.85;0.80;;;21.00;53.90;;;;;;5055059;28;20032;-59
2022/06/01 09:50:28;;;;;;;2.05;0.88;;;20.90;53.80;;;;;;5056328;28;20045;-60
2022/06/01 09:53:21;;;;;;;1.48;0.88;;;20.90;53.80;;;;;;5056917;28;20072;-60
2022/06/01 09:55:59;;;;;;;1.88;0.90;;;21.00;53.70;;;;;;5054806;28;20547;-60
2022/06/01 10:07:05;;;;;;;1.70;0.80;;;20.90;53.60;;;;;;5057263;28;20048;-58
2022/06/01 10:09:33;;;;;;;1.40;0.80;;;20.90;53.50;;;;;;5057081;28;20086;-60
2022/06/01 10:12:18;;;;;;;1.38;0.60;;;20.90;53.50;;;;;;5057713;28;20033;-59
2022/06/01 10:14:52;;;;;;;0.80;0.70;;;20.90;53.30;;;;;;5057669;28;20037;-59
2022/06/01 10:17:35;;;;;;;0.82;0.60;;;20.90;53.30;;;;;;5053732;28;20044;-59
2022/06/01 10:20:15;;;;;;;1.15;0.70;;;20.90;53.30;;;;;;5056195;28;20036;-58
2022/06/01 10:22:49;;;;;;;1.35;0.60;;;21.00;53.30;;;;;;5054192;28;20044;-61
2022/06/01 10:25:23;;;;;;;0.73;0.70;;;20.90;53.20;;;;;;5056657;28;20480;-58
2022/06/01 10:28:25;;;;;;;0.68;0.68;;;20.90;53.10;;;;;;5055706;28;20083;-59
2022/06/01 10:30:58;;;;;;;1.27;0.60;;;20.90;53.10;;;;;;5039228;28;20382;-59
2022/06/01 10:33:37;;;;;;;1.42;0.90;;;21.00;53.10;;;;;;5055189;28;20112;-60
2022/06/01 10:36:10;;;;;;;0.68;0.60;;;20.90;53.00;;;;;;5056596;28;20044;-62
2022/06/01 10:38:43;;;;;;;1.73;0.60;;;20.90;53.00;;;;;;5056749;28;20037;-59
2022/06/01 10:41:24;;;;;;;0.77;0.77;;;20.90;52.80;;;;;;5055083;28;20042;-61
2022/06/01 10:43:59;;;;;;;0.95;0.60;;;20.90;52.80;;;;;;5058125;28;20448;-59
2022/06/01 10:46:58;;;;;;;0.70;0.50;;;20.90;52.70;;;;;;5056328;28;20046;-59
2022/06/01 10:49:46;;;;;;;0.50;0.50;;;20.90;52.40;;;;;;5050566;28;20063;-59
2022/06/01 10:52:15;;;;;;;0.63;0.63;;;20.90;52.30;;;;;;5055584;28;20036;-61
2022/06/01 10:54:41;;;;;;;0.68;0.60;;;20.90;52.30;;;;;;5054189;28;20041;-59
2022/06/01 10:57:10;;;;;;;1.35;0.60;;;20.90;51.80;;;;;;5056506;28;20071;-59
2022/06/01 10:59:37;;;;;;;1.02;0.57;;;20.90;51.90;;;;;;5056576;28;20086;-60
2022/06/01 11:02:35;;;;;;;2.75;0.70;;;20.90;51.90;;;;;;5055970;28;20127;-58
2022/06/01 11:05:16;;;;;;;2.75;0.50;;;20.90;51.70;;;;;;5055556;28;20281;-58
2022/06/01 11:08:07;;;;;;;0.73;0.60;;;20.90;51.80;;;;;;5057491;28;20476;-59
2022/06/01 11:10:36;;;;;;;1.95;0.60;;;20.90;51.40;;;;;;5056108;28;20391;-60
2022/06/01 11:13:12;;;;;;;1.40;0.70;;;20.90;51.50;;;;;;5054151;28;20044;-59
2022/06/01 11:16:12;;;;;;;1.33;0.50;;;20.90;51.30;;;;;;5054234;28;20048;-62
2022/06/01 11:19:04;;;;;;;0.80;0.60;;;20.90;51.20;;;;;;5054562;28;20082;-60
2022/06/01 11:21:41;;;;;;;2.35;0.55;;;20.90;51.00;;;;;;5054350;28;20087;-61
2022/06/01 11:24:35;;;;;;;4.95;0.70;;;20.90;51.00;;;;;;5056306;28;20036;-60
2022/06/01 11:27:39;;;;;;;2.70;0.80;;;20.90;50.60;;;;;;5039241;28;20040;-60
2022/06/01 11:30:19;;;;;;;0.90;0.60;;;20.90;50.00;;;;;;5054656;28;20043;-59
2022/06/01 11:33:09;;;;;;;1.55;0.50;;;20.90;49.90;;;;;;5055528;28;20110;-58
2022/06/01 11:35:40;;;;;;;0.47;0.47;;;20.90;49.90;;;;;;5054232;28;20041;-58
2022/06/01 11:38:39;;;;;;;1.30;0.70;;;20.90;50.30;;;;;;5054131;28;20045;-59
2022/06/01 11:41:11;;;;;;;1.23;0.40;;;20.90;50.20;;;;;;5051019;28;20159;-60
2022/06/01 11:43:59;;;;;;;1.85;0.70;;;20.90;50.50;;;;;;5054730;28;20045;-59
2022/06/01 11:46:39;;;;;;;1.23;0.63;;;20.90;50.70;;;;;;5057326;28;20186;-59
2022/06/01 11:49:13;;;;;;;1.63;0.70;;;20.90;50.70;;;;;;5036969;28;20079;-58
2022/06/01 11:51:38;;;;;;;0.60;0.35;;;20.90;50.70;;;;;;5055978;28;20036;-63
2022/06/01 11:54:06;;;;;;;0.52;0.50;;;20.90;50.80;;;;;;5053837;28;20037;-60
2022/06/01 11:56:44;;;;;;;1.63;0.60;;;20.90;50.90;;;;;;5054173;28;20134;-61
2022/06/01 11:59:27;;;;;;;0.60;0.52;;;20.90;50.90;;;;;;5052426;28;20042;-60
2022/06/01 12:02:40;;;;;;;2.60;0.50;;;20.90;50.80;;;;;;5051208;28;20106;-62
2022/06/01 12:05:09;;;;;;;2.03;0.70;;;20.90;50.70;;;;;;5052674;28;20033;-61
2022/06/01 12:07:45;;;;;;;2.28;0.73;;;20.90;50.80;;;;;;5032991;28;20426;-60
2022/06/01 12:10:31;;;;;;;1.20;0.57;;;20.90;50.80;;;;;;5051508;28;20443;-61
2022/06/01 12:13:03;;;;;;;0.70;0.43;;;20.90;50.80;;;;;;5033521;28;20270;-58
2022/06/01 12:15:38;;;;;;;1.33;0.50;;;20.90;50.90;;;;;;5052224;28;20044;-60
2022/06/01 12:18:14;;;;;;;3.13;0.40;;;20.90;50.90;;;;;;5051047;28;20135;-60
2022/06/01 12:20:40;;;;;;;0.52;0.35;;;20.90;50.90;;;;;;5035822;28;20044;-59
2022/06/01 12:29:07;;;;;;;2.63;0.60;;;20.90;50.90;;;;;;5055699;28;20043;-58
2022/06/01 12:31:39;;;;;;;1.30;0.40;;;20.90;51.00;;;;;;5052224;28;20102;-60
2022/06/01 12:34:20;;;;;;;0.77;0.50;;;20.90;51.00;;;;;;5054656;28;20048;-59
2022/06/01 12:36:54;;;;;;;0.40;0.40;;;20.90;51.00;;;;;;5053863;28;20477;-58
2022/06/01 12:39:31;;;;;;;0.65;0.40;;;20.90;51.00;;;;;;5033712;28;20052;-59
2022/06/01 12:42:11;;;;;;;2.08;0.60;;;20.90;51.00;;;;;;5052167;28;20059;-60
2022/06/01 12:44:39;;;;;;;1.63;0.60;;;20.90;51.00;;;;;;5053257;28;20104;-60
2022/06/01 12:47:05;;;;;;;1.35;0.50;;;20.90;51.00;;;;;;5052420;28;20326;-59
2022/06/01 12:49:43;;;;;;;0.57;0.57;;;20.90;51.00;;;;;;5052476;28;20086;-62
2022/06/01 12:52:19;;;;;;;1.40;0.60;;;20.90;51.00;;;;;;5053371;28;20131;-61
2022/06/01 12:54:50;;;;;;;0.88;0.40;;;20.90;51.00;;;;;;5053211;28;20041;-60
2022/06/01 12:57:34;;;;;;;1.20;0.40;;;20.90;51.00;;;;;;5035670;28;20119;-60
2022/06/01 13:00:03;;;;;;;1.00;0.50;;;20.90;51.00;;;;;;5051464;28;20053;-58
2022/06/01 13:02:33;;;;;;;0.93;0.60;;;20.90;51.10;;;;;;5052052;28;20334;-60
2022/06/01 13:04:58;;;;;;;0.57;0.50;;;20.90;51.10;;;;;;5053558;28;20037;-59
2022/06/01 13:07:32;;;;;;;1.42;0.65;;;20.90;51.10;;;;;;5053126;28;20056;-61
2022/06/01 13:10:06;;;;;;;1.88;0.50;;;20.90;51.10;;;;;;5050439;28;20102;-58
2022/06/01 13:12:33;;;;;;;0.65;0.45;;;20.90;51.10;;;;;;5053453;28;20037;-61
2022/06/01 13:15:10;;;;;;;1.55;0.63;;;20.90;51.10;;;;;;5057355;28;20048;-59
2022/06/01 13:17:45;;;;;;;1.20;0.57;;;20.90;51.10;;;;;;5058475;28;20420;-59
2022/06/01 13:20:11;;;;;;;0.65;0.63;;;20.90;51.00;;;;;;5056228;28;20083;-62
2022/06/01 13:22:42;;;;;;;1.00;0.50;;;20.90;50.70;;;;;;5055798;28;20068;-62
2022/06/01 13:25:14;;;;;;;0.85;0.70;;;20.90;50.70;;;;;;5057869;28;20047;-59
2022/06/01 13:27:40;;;;;;;0.82;0.50;;;20.90;50.50;;;;;;5056113;28;20040;-60
2022/06/01 13:30:07;;;;;;;2.78;0.73;;;20.90;50.30;;;;;;5056963;28;20036;-59
2022/06/01 13:32:40;;;;;;;2.22;0.60;;;20.90;50.30;;;;;;5055278;28;20059;-60
2022/06/01 13:35:18;;;;;;;0.77;0.50;;;20.90;50.40;;;;;;5055640;28;20045;-59
2022/06/01 13:37:45;;;;;;;1.48;0.60;;;20.90;50.50;;;;;;5057992;28;20127;-60
2022/06/01 13:40:52;;;;;;;2.45;0.80;;;20.90;50.50;;;;;;5057253;28;20036;-61
2022/06/01 13:43:18;;;;;;;1.15;0.57;;;20.90;50.50;;;;;;5007126;28;20173;-58